sensor_id;sensor_type;location;lat;lon;timestamp;pressure;altitude;pressure_sealevel;temperature;humidity
32492;BME280;20605;49.742;18.802;2023-05-07T06:49:33;98127.46;;;9.74;100.00
32492;BME280;20605;49.742;18.802;2023-05-07T06:58:46;98134.64;;;9.78;100.00
32492;BME280;20605;49.742;18.802;2023-05-07T07:21:15;98154.33;;;9.52;100.00
32492;BME280;20605;49.742;18.802;2023-05-07T07:24:45;98162.48;;;9.50;100.00
32492;BME280;20605;49.742;18.802;2023-05-07T07:56:25;98181.21;;;9.26;100.00
32492;BME280;20605;49.742;18.802;2023-05-07T09:20:31;98268.73;;;8.23;100.00
32492;BME280;20605;49.742;18.802;2023-05-07T09:54:25;98292.15;;;8.18;100.00
32492;BME280;20605;49.742;18.802;2023-05-07T09:57:25;98297.27;;;8.24;100.00
32492;BME280;20605;49.742;18.802;2023-05-07T10:01:10;98300.98;;;8.30;100.00
32492;BME280;20605;49.742;18.802;2023-05-07T10:12:44;98315.70;;;8.16;100.00
32492;BME280;20605;49.742;18.802;2023-05-07T10:22:07;98318.23;;;8.09;100.00
32492;BME280;20605;49.742;18.802;2023-05-07T10:31:53;98324.80;;;8.21;100.00
32492;BME280;20605;49.742;18.802;2023-05-07T10:40:54;98329.17;;;8.17;100.00
32492;BME280;20605;49.742;18.802;2023-05-07T11:22:36;98338.89;;;8.65;100.00
32492;BME280;20605;49.742;18.802;2023-05-07T11:34:29;98348.54;;;8.91;100.00
32492;BME280;20605;49.742;18.802;2023-05-07T11:41:41;98351.20;;;9.15;100.00
32492;BME280;20605;49.742;18.802;2023-05-07T11:45:06;98353.88;;;9.22;100.00
32492;BME280;20605;49.742;18.802;2023-05-07T11:58:31;98352.69;;;9.77;100.00
32492;BME280;20605;49.742;18.802;2023-05-07T12:32:33;98368.09;;;9.41;100.00
32492;BME280;20605;49.742;18.802;2023-05-07T14:48:05;98447.17;;;7.84;100.00
32492;BME280;20605;49.742;18.802;2023-05-07T14:51:15;98447.02;;;7.84;100.00
32492;BME280;20605;49.742;18.802;2023-05-07T14:54:00;98445.52;;;7.79;100.00
32492;BME280;20605;49.742;18.802;2023-05-07T14:56:52;98447.20;;;7.82;100.00
32492;BME280;20605;49.742;18.802;2023-05-07T14:59:29;98453.25;;;7.82;100.00
32492;BME280;20605;49.742;18.802;2023-05-07T15:01:58;98454.80;;;7.82;100.00
32492;BME280;20605;49.742;18.802;2023-05-07T15:04:25;98452.01;;;7.85;100.00
32492;BME280;20605;49.742;18.802;2023-05-07T15:06:55;98451.77;;;7.93;100.00
32492;BME280;20605;49.742;18.802;2023-05-07T15:10:21;98447.52;;;8.00;100.00
32492;BME280;20605;49.742;18.802;2023-05-07T15:12:49;98450.33;;;7.97;100.00
32492;BME280;20605;49.742;18.802;2023-05-07T15:15:35;98449.89;;;7.90;100.00
32492;BME280;20605;49.742;18.802;2023-05-07T15:18:02;98454.33;;;7.79;100.00
32492;BME280;20605;49.742;18.802;2023-05-07T15:20:34;98455.64;;;7.71;100.00
32492;BME280;20605;49.742;18.802;2023-05-07T15:23:27;98455.14;;;7.69;100.00
32492;BME280;20605;49.742;18.802;2023-05-07T15:26:00;98461.36;;;7.69;100.00
32492;BME280;20605;49.742;18.802;2023-05-07T15:28:29;98464.01;;;7.64;100.00
32492;BME280;20605;49.742;18.802;2023-05-07T15:30:59;98461.64;;;7.58;100.00
32492;BME280;20605;49.742;18.802;2023-05-07T15:33:25;98466.86;;;7.54;100.00
32492;BME280;20605;49.742;18.802;2023-05-07T15:35:56;98470.86;;;7.50;100.00
32492;BME280;20605;49.742;18.802;2023-05-07T15:38:25;98471.06;;;7.47;100.00
32492;BME280;20605;49.742;18.802;2023-05-07T15:40:52;98476.08;;;7.48;100.00
32492;BME280;20605;49.742;18.802;2023-05-07T15:43:20;98482.83;;;7.46;100.00
32492;BME280;20605;49.742;18.802;2023-05-07T15:45:47;98482.02;;;7.39;100.00
32492;BME280;20605;49.742;18.802;2023-05-07T15:48:12;98483.64;;;7.32;100.00
32492;BME280;20605;49.742;18.802;2023-05-07T15:50:39;98481.95;;;7.27;100.00
32492;BME280;20605;49.742;18.802;2023-05-07T15:53:14;98488.20;;;7.23;100.00
32492;BME280;20605;49.742;18.802;2023-05-07T15:55:41;98492.36;;;7.19;100.00
32492;BME280;20605;49.742;18.802;2023-05-07T15:58:08;98488.42;;;7.15;100.00
32492;BME280;20605;49.742;18.802;2023-05-07T16:00:34;98485.68;;;7.11;100.00
32492;BME280;20605;49.742;18.802;2023-05-07T16:03:04;98486.58;;;7.07;100.00
32492;BME280;20605;49.742;18.802;2023-05-07T16:05:31;98486.75;;;7.07;100.00
32492;BME280;20605;49.742;18.802;2023-05-07T16:07:57;98490.55;;;7.07;100.00
32492;BME280;20605;49.742;18.802;2023-05-07T16:10:24;98496.94;;;7.07;100.00
32492;BME280;20605;49.742;18.802;2023-05-07T16:12:51;98497.98;;;7.08;100.00
32492;BME280;20605;49.742;18.802;2023-05-07T16:15:16;98502.27;;;7.09;100.00
32492;BME280;20605;49.742;18.802;2023-05-07T16:17:45;98496.58;;;7.10;100.00
32492;BME280;20605;49.742;18.802;2023-05-07T16:20:12;98493.09;;;7.13;100.00
32492;BME280;20605;49.742;18.802;2023-05-07T16:22:39;98489.11;;;7.14;100.00
32492;BME280;20605;49.742;18.802;2023-05-07T16:25:05;98485.16;;;7.12;100.00
32492;BME280;20605;49.742;18.802;2023-05-07T16:27:32;98486.56;;;7.09;100.00
32492;BME280;20605;49.742;18.802;2023-05-07T16:29:58;98483.83;;;7.05;100.00
32492;BME280;20605;49.742;18.802;2023-05-07T16:32:24;98487.98;;;7.03;100.00
32492;BME280;20605;49.742;18.802;2023-05-07T16:34:52;98479.52;;;7.03;100.00
32492;BME280;20605;49.742;18.802;2023-05-07T16:37:19;98483.15;;;7.04;100.00
32492;BME280;20605;49.742;18.802;2023-05-07T16:39:46;98480.02;;;7.07;100.00
32492;BME280;20605;49.742;18.802;2023-05-07T16:42:12;98480.17;;;7.09;100.00
32492;BME280;20605;49.742;18.802;2023-05-07T16:44:40;98478.61;;;7.12;100.00
32492;BME280;20605;49.742;18.802;2023-05-07T16:47:08;98483.95;;;7.12;100.00
32492;BME280;20605;49.742;18.802;2023-05-07T16:49:35;98486.89;;;7.12;100.00
32492;BME280;20605;49.742;18.802;2023-05-07T16:52:04;98484.48;;;7.10;100.00
32492;BME280;20605;49.742;18.802;2023-05-07T16:54:30;98490.55;;;7.07;100.00
32492;BME280;20605;49.742;18.802;2023-05-07T16:56:57;98494.90;;;7.03;100.00
32492;BME280;20605;49.742;18.802;2023-05-07T16:59:25;98496.13;;;7.00;100.00
32492;BME280;20605;49.742;18.802;2023-05-07T17:01:52;98495.11;;;6.97;100.00
32492;BME280;20605;49.742;18.802;2023-05-07T17:04:18;98494.95;;;6.93;100.00
32492;BME280;20605;49.742;18.802;2023-05-07T17:06:46;98493.08;;;6.88;100.00
32492;BME280;20605;49.742;18.802;2023-05-07T17:09:12;98494.15;;;6.82;100.00
32492;BME280;20605;49.742;18.802;2023-05-07T17:11:38;98493.66;;;6.77;100.00
32492;BME280;20605;49.742;18.802;2023-05-07T17:14:06;98497.12;;;6.77;100.00
32492;BME280;20605;49.742;18.802;2023-05-07T17:16:32;98502.99;;;6.75;100.00
32492;BME280;20605;49.742;18.802;2023-05-07T17:19:02;98503.20;;;6.72;100.00
32492;BME280;20605;49.742;18.802;2023-05-07T17:21:31;98506.14;;;6.67;100.00
32492;BME280;20605;49.742;18.802;2023-05-07T17:23:57;98508.06;;;6.64;100.00
32492;BME280;20605;49.742;18.802;2023-05-07T17:26:24;98512.90;;;6.62;100.00
32492;BME280;20605;49.742;18.802;2023-05-07T17:28:50;98516.88;;;6.60;100.00
32492;BME280;20605;49.742;18.802;2023-05-07T17:31:16;98518.77;;;6.61;100.00
32492;BME280;20605;49.742;18.802;2023-05-07T17:33:41;98518.94;;;6.63;100.00
32492;BME280;20605;49.742;18.802;2023-05-07T17:36:16;98522.89;;;6.65;100.00
32492;BME280;20605;49.742;18.802;2023-05-07T17:38:42;98518.92;;;6.66;100.00
32492;BME280;20605;49.742;18.802;2023-05-07T17:41:16;98514.95;;;6.66;100.00
32492;BME280;20605;49.742;18.802;2023-05-07T17:43:51;98528.07;;;6.65;100.00
32492;BME280;20605;49.742;18.802;2023-05-07T17:46:17;98527.38;;;6.65;100.00
32492;BME280;20605;49.742;18.802;2023-05-07T17:48:43;98526.17;;;6.63;100.00
32492;BME280;20605;49.742;18.802;2023-05-07T17:51:09;98526.70;;;6.63;100.00
32492;BME280;20605;49.742;18.802;2023-05-07T17:53:35;98522.90;;;6.62;100.00
32492;BME280;20605;49.742;18.802;2023-05-07T17:56:01;98523.77;;;6.62;100.00
32492;BME280;20605;49.742;18.802;2023-05-07T17:58:26;98522.58;;;6.60;100.00
32492;BME280;20605;49.742;18.802;2023-05-07T18:00:53;98520.67;;;6.57;100.00
32492;BME280;20605;49.742;18.802;2023-05-07T18:03:20;98522.75;;;6.58;100.00
32492;BME280;20605;49.742;18.802;2023-05-07T18:05:49;98524.13;;;6.59;100.00
32492;BME280;20605;49.742;18.802;2023-05-07T18:08:15;98524.82;;;6.59;100.00
32492;BME280;20605;49.742;18.802;2023-05-07T18:10:42;98522.06;;;6.58;100.00
32492;BME280;20605;49.742;18.802;2023-05-07T18:13:11;98524.65;;;6.58;100.00
32492;BME280;20605;49.742;18.802;2023-05-07T18:15:37;98522.77;;;6.55;100.00
32492;BME280;20605;49.742;18.802;2023-05-07T18:18:04;98522.27;;;6.51;100.00
32492;BME280;20605;49.742;18.802;2023-05-07T18:20:30;98526.11;;;6.49;100.00
32492;BME280;20605;49.742;18.802;2023-05-07T18:22:57;98525.42;;;6.47;100.00
32492;BME280;20605;49.742;18.802;2023-05-07T18:25:32;98527.48;;;6.46;100.00
32492;BME280;20605;49.742;18.802;2023-05-07T18:27:58;98528.00;;;6.47;100.00
32492;BME280;20605;49.742;18.802;2023-05-07T18:30:24;98533.55;;;6.42;100.00
32492;BME280;20605;49.742;18.802;2023-05-07T18:32:50;98530.28;;;6.37;100.00
32492;BME280;20605;49.742;18.802;2023-05-07T18:35:17;98528.91;;;6.32;100.00
32492;BME280;20605;49.742;18.802;2023-05-07T18:37:42;98533.59;;;6.29;100.00
32492;BME280;20605;49.742;18.802;2023-05-07T18:40:11;98532.21;;;6.25;100.00
32492;BME280;20605;49.742;18.802;2023-05-07T18:42:39;98537.56;;;6.25;100.00
32492;BME280;20605;49.742;18.802;2023-05-07T18:45:05;98537.73;;;6.25;100.00
32492;BME280;20605;49.742;18.802;2023-05-07T18:47:31;98541.19;;;6.23;100.00
32492;BME280;20605;49.742;18.802;2023-05-07T18:49:56;98541.53;;;6.23;100.00
32492;BME280;20605;49.742;18.802;2023-05-07T18:52:23;98547.40;;;6.20;100.00
32492;BME280;20605;49.742;18.802;2023-05-07T18:54:50;98550.70;;;6.16;100.00
32492;BME280;20605;49.742;18.802;2023-05-07T18:57:16;98548.97;;;6.13;100.00
32492;BME280;20605;49.742;18.802;2023-05-07T18:59:52;98551.05;;;6.10;100.00
32492;BME280;20605;49.742;18.802;2023-05-07T19:02:25;98557.94;;;6.09;100.00
32492;BME280;20605;49.742;18.802;2023-05-07T19:05:01;98561.05;;;6.09;100.00
32492;BME280;20605;49.742;18.802;2023-05-07T19:07:47;98560.70;;;6.10;100.00
32492;BME280;20605;49.742;18.802;2023-05-07T19:10:19;98559.48;;;6.12;100.00
32492;BME280;20605;49.742;18.802;2023-05-07T19:12:46;98558.80;;;6.13;100.00
32492;BME280;20605;49.742;18.802;2023-05-07T19:15:13;98558.63;;;6.14;100.00
32492;BME280;20605;49.742;18.802;2023-05-07T19:17:39;98562.59;;;6.14;100.00
32492;BME280;20605;49.742;18.802;2023-05-07T19:20:05;98571.21;;;6.15;100.00
32492;BME280;20605;49.742;18.802;2023-05-07T19:22:32;98570.17;;;6.14;100.00
32492;BME280;20605;49.742;18.802;2023-05-07T19:24:58;98576.20;;;6.16;100.00
32492;BME280;20605;49.742;18.802;2023-05-07T19:27:23;98576.03;;;6.18;100.00
32492;BME280;20605;49.742;18.802;2023-05-07T19:29:49;98580.86;;;6.19;100.00
32492;BME280;20605;49.742;18.802;2023-05-07T19:32:15;98581.89;;;6.21;100.00
32492;BME280;20605;49.742;18.802;2023-05-07T19:34:41;98579.48;;;6.25;100.00
32492;BME280;20605;49.742;18.802;2023-05-07T19:37:06;98580.34;;;6.27;100.00
32492;BME280;20605;49.742;18.802;2023-05-07T19:39:34;98581.53;;;6.28;100.00
32492;BME280;20605;49.742;18.802;2023-05-07T19:42:13;98587.91;;;6.29;100.00
32492;BME280;20605;49.742;18.802;2023-05-07T19:44:39;98589.80;;;6.32;100.00
32492;BME280;20605;49.742;18.802;2023-05-07T19:47:10;98587.22;;;6.32;100.00
32492;BME280;20605;49.742;18.802;2023-05-07T19:49:36;98585.32;;;6.30;100.00
32492;BME280;20605;49.742;18.802;2023-05-07T19:52:03;98591.19;;;6.30;100.00
32492;BME280;20605;49.742;18.802;2023-05-07T19:54:30;98593.08;;;6.30;100.00
32492;BME280;20605;49.742;18.802;2023-05-07T19:57:10;98589.80;;;6.28;100.00
32492;BME280;20605;49.742;18.802;2023-05-07T19:59:36;98588.60;;;6.28;100.00
32492;BME280;20605;49.742;18.802;2023-05-07T20:02:02;98582.22;;;6.28;100.00
32492;BME280;20605;49.742;18.802;2023-05-07T20:04:28;98579.98;;;6.27;100.00
32492;BME280;20605;49.742;18.802;2023-05-07T20:06:58;98583.60;;;6.28;100.00
32492;BME280;20605;49.742;18.802;2023-05-07T20:09:24;98582.23;;;6.27;100.00
32492;BME280;20605;49.742;18.802;2023-05-07T20:11:50;98584.13;;;6.26;100.00
32492;BME280;20605;49.742;18.802;2023-05-07T20:14:16;98582.40;;;6.23;100.00
32492;BME280;20605;49.742;18.802;2023-05-07T20:16:43;98587.58;;;6.23;100.00
32492;BME280;20605;49.742;18.802;2023-05-07T20:19:10;98587.41;;;6.23;100.00
32492;BME280;20605;49.742;18.802;2023-05-07T20:21:35;98588.61;;;6.22;100.00
32492;BME280;20605;49.742;18.802;2023-05-07T20:24:01;98583.44;;;6.22;100.00
32492;BME280;20605;49.742;18.802;2023-05-07T20:26:27;98588.44;;;6.21;100.00
32492;BME280;20605;49.742;18.802;2023-05-07T20:28:59;98587.05;;;6.19;100.00
32492;BME280;20605;49.742;18.802;2023-05-07T20:31:28;98594.31;;;6.17;100.00
32492;BME280;20605;49.742;18.802;2023-05-07T20:33:57;98593.63;;;6.16;100.00
32492;BME280;20605;49.742;18.802;2023-05-07T20:36:23;98594.84;;;6.14;100.00
32492;BME280;20605;49.742;18.802;2023-05-07T20:38:51;98604.66;;;6.14;100.00
32492;BME280;20605;49.742;18.802;2023-05-07T20:41:17;98606.91;;;6.13;100.00
32492;BME280;20605;49.742;18.802;2023-05-07T20:43:43;98611.56;;;6.11;100.00
32492;BME280;20605;49.742;18.802;2023-05-07T20:46:09;98613.12;;;6.09;100.00
32492;BME280;20605;49.742;18.802;2023-05-07T20:48:35;98609.50;;;6.07;100.00
32492;BME280;20605;49.742;18.802;2023-05-07T20:51:01;98605.18;;;6.07;100.00
32492;BME280;20605;49.742;18.802;2023-05-07T20:53:31;98604.15;;;6.09;100.00
32492;BME280;20605;49.742;18.802;2023-05-07T20:55:57;98606.91;;;6.10;100.00
32492;BME280;20605;49.742;18.802;2023-05-07T20:58:26;98611.57;;;6.09;100.00
32492;BME280;20605;49.742;18.802;2023-05-07T21:00:52;98608.81;;;6.07;100.00
32492;BME280;20605;49.742;18.802;2023-05-07T21:03:19;98610.02;;;6.05;100.00
32492;BME280;20605;49.742;18.802;2023-05-07T21:05:56;98608.81;;;6.03;100.00
32492;BME280;20605;49.742;18.802;2023-05-07T21:08:24;98609.66;;;6.00;100.00
32492;BME280;20605;49.742;18.802;2023-05-07T21:10:51;98615.02;;;5.97;100.00
32492;BME280;20605;49.742;18.802;2023-05-07T21:13:18;98613.47;;;5.95;100.00
32492;BME280;20605;49.742;18.802;2023-05-07T21:15:44;98613.64;;;5.93;100.00
32492;BME280;20605;49.742;18.802;2023-05-07T21:18:14;98616.23;;;5.90;100.00
32492;BME280;20605;49.742;18.802;2023-05-07T21:20:42;98618.11;;;5.89;100.00
32492;BME280;20605;49.742;18.802;2023-05-07T21:23:09;98618.09;;;5.88;100.00
32492;BME280;20605;49.742;18.802;2023-05-07T21:25:39;98615.50;;;5.87;100.00
32492;BME280;20605;49.742;18.802;2023-05-07T21:28:08;98620.67;;;5.88;100.00
32492;BME280;20605;49.742;18.802;2023-05-07T21:30:34;98623.11;;;5.90;100.00
32492;BME280;20605;49.742;18.802;2023-05-07T21:33:00;98626.23;;;5.92;100.00
32492;BME280;20605;49.742;18.802;2023-05-07T21:35:26;98622.26;;;5.92;100.00
32492;BME280;20605;49.742;18.802;2023-05-07T21:37:53;98622.95;;;5.90;100.00
32492;BME280;20605;49.742;18.802;2023-05-07T21:40:19;98624.13;;;5.86;100.00
32492;BME280;20605;49.742;18.802;2023-05-07T21:42:45;98622.40;;;5.84;100.00
32492;BME280;20605;49.742;18.802;2023-05-07T21:45:11;98628.09;;;5.86;100.00
32492;BME280;20605;49.742;18.802;2023-05-07T21:47:37;98625.67;;;5.88;100.00
32492;BME280;20605;49.742;18.802;2023-05-07T21:50:03;98627.95;;;5.90;100.00
32492;BME280;20605;49.742;18.802;2023-05-07T21:52:29;98635.19;;;5.93;100.00
32492;BME280;20605;49.742;18.802;2023-05-07T21:54:56;98640.35;;;5.91;100.00
32492;BME280;20605;49.742;18.802;2023-05-07T21:57:22;98645.85;;;5.88;100.00
32492;BME280;20605;49.742;18.802;2023-05-07T21:59:51;98642.56;;;5.87;100.00
32492;BME280;20605;49.742;18.802;2023-05-07T22:02:16;98639.64;;;5.87;100.00
32492;BME280;20605;49.742;18.802;2023-05-07T22:04:44;98636.56;;;5.89;100.00
32492;BME280;20605;49.742;18.802;2023-05-07T22:07:10;98634.66;;;5.89;100.00
32492;BME280;20605;49.742;18.802;2023-05-07T22:09:36;98635.67;;;5.87;100.00
32492;BME280;20605;49.742;18.802;2023-05-07T22:12:01;98633.77;;;5.85;100.00
32492;BME280;20605;49.742;18.802;2023-05-07T22:14:28;98636.52;;;5.84;100.00
32492;BME280;20605;49.742;18.802;2023-05-07T22:16:53;98633.77;;;5.85;100.00
32492;BME280;20605;49.742;18.802;2023-05-07T22:19:19;98634.64;;;5.86;100.00
32492;BME280;20605;49.742;18.802;2023-05-07T22:21:45;98636.02;;;5.85;100.00
32492;BME280;20605;49.742;18.802;2023-05-07T22:24:12;98631.70;;;5.84;100.00
32492;BME280;20605;49.742;18.802;2023-05-07T22:26:39;98637.39;;;5.84;100.00
32492;BME280;20605;49.742;18.802;2023-05-07T22:29:05;98641.02;;;5.83;100.00
32492;BME280;20605;49.742;18.802;2023-05-07T22:31:31;98638.77;;;5.82;100.00
32492;BME280;20605;49.742;18.802;2023-05-07T22:33:57;98633.60;;;5.80;100.00
32492;BME280;20605;49.742;18.802;2023-05-07T22:36:22;98629.98;;;5.80;100.00
32492;BME280;20605;49.742;18.802;2023-05-07T22:38:48;98630.84;;;5.78;100.00
32492;BME280;20605;49.742;18.802;2023-05-07T22:41:14;98626.19;;;5.76;100.00
32492;BME280;20605;49.742;18.802;2023-05-07T22:43:39;98620.67;;;5.76;100.00
32492;BME280;20605;49.742;18.802;2023-05-07T22:46:05;98622.05;;;5.79;100.00
32492;BME280;20605;49.742;18.802;2023-05-07T22:48:31;98618.77;;;5.80;100.00
32492;BME280;20605;49.742;18.802;2023-05-07T22:50:57;98620.85;;;5.78;100.00
32492;BME280;20605;49.742;18.802;2023-05-07T22:53:23;98621.02;;;5.78;100.00
32492;BME280;20605;49.742;18.802;2023-05-07T22:55:49;98621.88;;;5.78;100.00
32492;BME280;20605;49.742;18.802;2023-05-07T22:58:14;98618.42;;;5.77;100.00
32492;BME280;20605;49.742;18.802;2023-05-07T23:00:41;98623.08;;;5.75;100.00
32492;BME280;20605;49.742;18.802;2023-05-07T23:03:06;98620.67;;;5.73;100.00
32492;BME280;20605;49.742;18.802;2023-05-07T23:05:32;98620.48;;;5.72;100.00
32492;BME280;20605;49.742;18.802;2023-05-07T23:07:58;98625.84;;;5.72;100.00
32492;BME280;20605;49.742;18.802;2023-05-07T23:10:24;98624.98;;;5.72;100.00
32492;BME280;20605;49.742;18.802;2023-05-07T23:12:50;98621.70;;;5.71;100.00
32492;BME280;20605;49.742;18.802;2023-05-07T23:15:16;98624.63;;;5.72;100.00
32492;BME280;20605;49.742;18.802;2023-05-07T23:17:43;98623.94;;;5.72;100.00
32492;BME280;20605;49.742;18.802;2023-05-07T23:20:12;98619.80;;;5.69;100.00
32492;BME280;20605;49.742;18.802;2023-05-07T23:22:39;98615.33;;;5.68;100.00
32492;BME280;20605;49.742;18.802;2023-05-07T23:25:07;98614.29;;;5.67;100.00
32492;BME280;20605;49.742;18.802;2023-05-07T23:27:33;98614.46;;;5.67;100.00
32492;BME280;20605;49.742;18.802;2023-05-07T23:30:01;98613.77;;;5.68;100.00
32492;BME280;20605;49.742;18.802;2023-05-07T23:32:30;98612.58;;;5.70;100.00
32492;BME280;20605;49.742;18.802;2023-05-07T23:35:09;98615.67;;;5.72;100.00
32492;BME280;20605;49.742;18.802;2023-05-07T23:37:39;98615.33;;;5.74;100.00
32492;BME280;20605;49.742;18.802;2023-05-07T23:40:06;98615.16;;;5.76;100.00
32492;BME280;20605;49.742;18.802;2023-05-07T23:42:32;98611.55;;;5.80;100.00
32492;BME280;20605;49.742;18.802;2023-05-07T23:44:58;98609.65;;;5.82;100.00
32492;BME280;20605;49.742;18.802;2023-05-07T23:47:24;98608.95;;;5.84;100.00
32492;BME280;20605;49.742;18.802;2023-05-07T23:49:49;98604.65;;;5.86;100.00
32492;BME280;20605;49.742;18.802;2023-05-07T23:52:15;98599.83;;;5.85;100.00
32492;BME280;20605;49.742;18.802;2023-05-07T23:54:41;98595.86;;;5.85;100.00
32492;BME280;20605;49.742;18.802;2023-05-07T23:57:08;98590.69;;;5.85;100.00
32492;BME280;20605;49.742;18.802;2023-05-07T23:59:34;98589.13;;;5.85;100.00
